CheckWX is a tool to help pilots better visualize weather data.  It is not intended as a substitute for an official pre-flight weather briefing.

18:11:03 UTC

FAUT METAR
K. D. Matanzima Airport
Mthatha, South Africa
Current

1 hour ago

FAUT 241700Z AUTO 31003KT //// // ////// 16/15 Q1020
Observed
Apr-24 @ 17:00 UTC
Wind
  • 310° at 3 KTS
Visibility
Temperature
16°C / 61°F
Dewpoint
15°C / 59°F
Humidity
94%
Altimeter
30.12" Hg
Pressure
1019.92 hPa
Previous

2 hours ago

FAUT 241600Z 24001KT 9999 FEW013 SCT030 16/15 Q1019
Observed
Apr-24 @ 16:00 UTC
Wind
  • 240° at 1 KTS
Visibility
10,000+ meters
Flight Rules
VFR
Cloud Levels
  • Few at 1,300' AGL
  • Scattered at 3,000' AGL
Temperature
16°C / 61°F
Dewpoint
15°C / 59°F
Humidity
94%
Altimeter
30.09" Hg
Pressure
1018.92 hPa
Previous

3 hours ago

FAUT 241505Z 14012KT 9000 SCT013 BKN030 16/16 Q1018 RETS
Observed
Apr-24 @ 15:05 UTC
Wind
  • 140° at 12 KTS
Visibility
8,996 meters
Flight Rules
MVFR
Cloud Levels
  • Scattered at 1,300' AGL
  • Broken at 3,000' AGL
Temperature
16°C / 61°F
Dewpoint
16°C / 61°F
Humidity
100%
Altimeter
30.06" Hg
Pressure
1017.92 hPa